Time;durP1;ratioP1;P1;durP2;ratioP2;P2;SDS_P1;SDS_P2;PMS_P1;PMS_P2;Temp;Humidity;BMP_temperature;BMP_pressure;BME280_temperature;BME280_humidity;BME280_pressure;Samples;Min_cycle;Max_cycle;Signal;HPM_P1;HPM_P2
2022/01/11 00:00:55;;;;;;;46.70;14.88;;;4.80;94.50;;;;;;5052509;28;20037;-81
2022/01/11 00:03:21;;;;;;;30.48;14.93;;;4.70;94.50;;;;;;5053043;28;20037;-81
2022/01/11 00:05:56;;;;;;;30.63;15.20;;;4.70;94.50;;;;;;5052144;28;20128;-81
2022/01/11 00:08:33;;;;;;;28.92;15.63;;;4.70;94.50;;;;;;5053476;28;20067;-81
2022/01/11 00:11:04;;;;;;;29.40;15.52;;;4.70;94.50;;;;;;5052946;28;20400;-80
2022/01/11 00:13:32;;;;;;;29.08;15.23;;;4.70;94.70;;;;;;5053025;28;20104;-80
2022/01/11 00:15:58;;;;;;;26.98;15.48;;;4.70;94.80;;;;;;5052877;28;20029;-80
2022/01/11 00:18:23;;;;;;;33.78;14.88;;;4.70;94.70;;;;;;5052958;28;20575;-80
2022/01/11 00:20:49;;;;;;;40.90;15.50;;;4.80;94.80;;;;;;5052543;28;20476;-81
2022/01/11 00:25:46;;;;;;;33.95;14.30;;;4.80;94.50;;;;;;5052581;28;20026;-80
2022/01/11 00:28:16;;;;;;;31.63;14.32;;;4.80;94.60;;;;;;5052547;28;20033;-80
2022/01/11 00:30:43;;;;;;;25.85;15.15;;;4.80;94.50;;;;;;5052496;28;20054;-80
2022/01/11 00:33:15;;;;;;;39.80;15.60;;;4.80;94.40;;;;;;5052576;28;20067;-80
2022/01/11 00:35:43;;;;;;;26.25;14.57;;;4.80;94.30;;;;;;5035913;28;20032;-78
2022/01/11 00:38:15;;;;;;;28.98;14.75;;;4.70;94.30;;;;;;5053214;28;20098;-79
2022/01/11 00:41:01;;;;;;;41.65;15.27;;;4.70;94.40;;;;;;5052354;28;20115;-79
2022/01/11 00:43:29;;;;;;;25.05;13.57;;;4.70;94.40;;;;;;5052633;28;20021;-78
2022/01/11 00:45:56;;;;;;;31.48;15.40;;;4.70;94.50;;;;;;5055614;28;20056;-79
2022/01/11 00:48:23;;;;;;;35.33;15.93;;;4.70;94.50;;;;;;5056326;28;20037;-79
2022/01/11 00:50:49;;;;;;;35.15;15.32;;;4.60;94.50;;;;;;5055881;28;20031;-80
2022/01/11 00:53:15;;;;;;;28.45;15.95;;;4.70;94.60;;;;;;5055550;28;20032;-80
2022/01/11 00:55:42;;;;;;;33.67;15.88;;;4.70;94.60;;;;;;5045063;28;20028;-80
2022/01/11 00:58:07;;;;;;;26.35;15.25;;;4.70;94.60;;;;;;5056476;28;20116;-80
2022/01/11 01:00:35;;;;;;;34.08;15.13;;;4.80;94.70;;;;;;5055547;28;20076;-80
2022/01/11 01:03:01;;;;;;;27.02;15.85;;;4.80;94.70;;;;;;5056403;28;20119;-80
2022/01/11 01:05:27;;;;;;;31.63;14.40;;;4.70;94.80;;;;;;5055935;28;20124;-79
2022/01/11 01:07:53;;;;;;;24.50;14.13;;;4.70;94.60;;;;;;5056280;28;20047;-79
2022/01/11 01:10:26;;;;;;;29.50;15.80;;;4.70;94.50;;;;;;5055682;28;20033;-78
2022/01/11 01:12:57;;;;;;;27.17;14.52;;;4.70;94.40;;;;;;5016997;28;20044;-79
2022/01/11 01:15:24;;;;;;;33.30;15.85;;;4.70;94.40;;;;;;5039772;28;20402;-79
2022/01/11 01:17:51;;;;;;;30.00;15.35;;;4.70;94.50;;;;;;5056221;28;20053;-79
2022/01/11 01:20:17;;;;;;;23.27;14.30;;;4.60;94.50;;;;;;5055227;28;20104;-79
2022/01/11 01:22:43;;;;;;;25.05;14.60;;;4.60;94.50;;;;;;5056111;28;20476;-79
2022/01/11 01:25:09;;;;;;;27.25;15.48;;;4.50;94.60;;;;;;5056109;28;20032;-79
2022/01/11 01:27:35;;;;;;;25.98;14.02;;;4.50;94.70;;;;;;5055798;28;20036;-78
2022/01/11 01:30:03;;;;;;;26.23;14.85;;;4.40;94.90;;;;;;5055557;28;20151;-78
2022/01/11 01:32:29;;;;;;;28.77;13.75;;;4.50;94.90;;;;;;5055565;28;20139;-79
2022/01/11 01:34:58;;;;;;;24.45;14.95;;;4.50;94.80;;;;;;5055740;28;20111;-78
2022/01/11 01:37:24;;;;;;;25.65;14.70;;;4.50;94.90;;;;;;5056032;28;20155;-80
2022/01/11 01:39:50;;;;;;;31.45;14.43;;;4.50;94.90;;;;;;5047718;28;20101;-79
2022/01/11 01:42:23;;;;;;;26.25;14.27;;;4.40;94.90;;;;;;5031472;28;20465;-79
2022/01/11 01:44:50;;;;;;;26.48;14.52;;;4.40;95.00;;;;;;5030956;28;20030;-79
2022/01/11 01:47:16;;;;;;;27.20;14.23;;;4.40;95.00;;;;;;5034014;28;20048;-79
2022/01/11 01:49:41;;;;;;;28.30;15.50;;;4.40;95.00;;;;;;5032114;28;20397;-79
2022/01/11 01:52:07;;;;;;;24.98;14.25;;;4.40;95.00;;;;;;5025694;28;20131;-80
2022/01/11 01:54:33;;;;;;;24.83;13.80;;;4.40;95.10;;;;;;5021122;28;20040;-80
2022/01/11 01:56:59;;;;;;;32.75;15.30;;;4.40;95.20;;;;;;5016595;28;20036;-80
2022/01/11 01:59:25;;;;;;;31.77;14.52;;;4.40;95.10;;;;;;5016799;28;20037;-80
2022/01/11 02:01:50;;;;;;;29.48;14.50;;;4.40;95.00;;;;;;5041768;28;20029;-80
2022/01/11 02:04:18;;;;;;;26.30;14.73;;;4.40;95.20;;;;;;5054671;28;20041;-80
2022/01/11 02:06:45;;;;;;;31.92;13.82;;;4.40;95.30;;;;;;5054675;28;20377;-80
2022/01/11 02:09:15;;;;;;;61.60;15.15;;;4.40;95.10;;;;;;5055379;28;20044;-80
2022/01/11 02:11:41;;;;;;;33.00;14.93;;;4.40;95.20;;;;;;5044904;28;20037;-80
2022/01/11 02:14:06;;;;;;;30.60;15.18;;;4.40;95.20;;;;;;5055381;28;20025;-80
2022/01/11 02:16:32;;;;;;;40.75;15.68;;;4.40;95.30;;;;;;5054336;28;20500;-80
2022/01/11 02:18:58;;;;;;;32.10;15.25;;;4.30;95.30;;;;;;5055344;28;20104;-80
2022/01/11 02:21:24;;;;;;;27.83;13.93;;;4.40;95.30;;;;;;5054082;28;20032;-80
2022/01/11 02:23:50;;;;;;;25.60;14.82;;;4.40;95.20;;;;;;5054833;28;20029;-80
2022/01/11 02:26:16;;;;;;;26.30;14.75;;;4.40;95.10;;;;;;5054648;28;20069;-80
2022/01/11 02:28:42;;;;;;;27.02;15.65;;;4.30;95.20;;;;;;5054751;28;20537;-80
2022/01/11 02:31:12;;;;;;;25.35;15.05;;;4.40;95.20;;;;;;5054199;28;20048;-80
2022/01/11 02:33:43;;;;;;;26.60;15.05;;;4.30;95.20;;;;;;5054823;28;20391;-80
2022/01/11 02:36:18;;;;;;;25.83;16.08;;;4.30;95.20;;;;;;5040096;28;20025;-80
2022/01/11 02:38:48;;;;;;;26.52;15.43;;;4.30;95.30;;;;;;5054448;28;20550;-80
2022/01/11 02:41:14;;;;;;;22.25;14.68;;;4.30;95.30;;;;;;5053381;28;20506;-79
2022/01/11 02:43:42;;;;;;;24.33;15.00;;;4.30;95.50;;;;;;5054331;28;20036;-78
2022/01/11 02:46:08;;;;;;;30.00;16.75;;;4.40;95.30;;;;;;5053554;28;20087;-80
2022/01/11 02:48:34;;;;;;;27.52;15.70;;;4.40;95.20;;;;;;5055206;28;20029;-80
2022/01/11 02:50:59;;;;;;;33.78;17.40;;;4.40;95.20;;;;;;5054613;28;20487;-80
2022/01/11 02:53:25;;;;;;;28.58;16.00;;;4.40;95.20;;;;;;5054101;28;20116;-79
2022/01/11 02:55:51;;;;;;;28.40;16.55;;;4.30;95.30;;;;;;5053943;28;20033;-79
2022/01/11 02:58:16;;;;;;;31.30;18.65;;;4.30;95.40;;;;;;5053842;28;20075;-79
2022/01/11 03:00:42;;;;;;;27.50;15.75;;;4.20;95.50;;;;;;5053075;28;20109;-79
2022/01/11 03:03:23;;;;;;;28.17;16.65;;;4.20;95.60;;;;;;5054541;28;20028;-79
2022/01/11 03:06:02;;;;;;;29.75;16.70;;;4.30;95.60;;;;;;5053947;28;20037;-80
2022/01/11 03:08:30;;;;;;;32.70;16.73;;;4.30;95.50;;;;;;5052838;28;20119;-78
2022/01/11 03:10:57;;;;;;;28.50;16.33;;;4.30;95.40;;;;;;5053209;28;20029;-78
2022/01/11 03:13:23;;;;;;;31.50;17.75;;;4.30;95.50;;;;;;5054384;28;20033;-79
2022/01/11 03:15:50;;;;;;;26.88;16.23;;;4.20;95.60;;;;;;5053899;28;20037;-79
2022/01/11 03:18:15;;;;;;;30.27;16.98;;;4.20;95.80;;;;;;5054107;28;20039;-78
2022/01/11 03:20:43;;;;;;;29.20;16.70;;;4.20;95.80;;;;;;5053146;28;20029;-78
2022/01/11 03:23:09;;;;;;;27.08;15.27;;;4.20;95.70;;;;;;5053518;28;20119;-79
2022/01/11 03:25:36;;;;;;;29.08;17.08;;;4.20;95.60;;;;;;5051983;28;20123;-79
2022/01/11 03:28:03;;;;;;;32.33;17.67;;;4.10;95.60;;;;;;5053215;28;20041;-79
2022/01/11 03:30:29;;;;;;;31.50;17.60;;;4.10;95.60;;;;;;5053495;28;20104;-78
2022/01/11 03:32:54;;;;;;;33.72;17.85;;;4.10;95.60;;;;;;5053294;28;20060;-79
2022/01/11 03:35:21;;;;;;;44.97;19.10;;;4.10;95.70;;;;;;5053100;28;20029;-78
2022/01/11 03:37:47;;;;;;;31.35;18.98;;;4.10;95.70;;;;;;5053125;28;20029;-79
2022/01/11 03:40:20;;;;;;;30.75;18.38;;;4.10;95.80;;;;;;5053209;28;20392;-78
2022/01/11 03:42:46;;;;;;;31.02;17.42;;;4.10;95.90;;;;;;5051868;28;20400;-79
2022/01/11 03:45:13;;;;;;;30.42;17.92;;;4.20;95.90;;;;;;5053252;28;20104;-78
2022/01/11 03:47:39;;;;;;;27.77;17.17;;;4.20;95.90;;;;;;5060628;28;20092;-79
2022/01/11 03:50:07;;;;;;;29.40;18.05;;;4.20;95.90;;;;;;5057751;28;20098;-78
2022/01/11 03:52:33;;;;;;;29.38;17.40;;;4.20;95.90;;;;;;5053095;28;20106;-78
2022/01/11 03:57:28;;;;;;;29.35;17.40;;;4.20;95.90;;;;;;5053182;28;20036;-78
2022/01/11 03:59:54;;;;;;;30.08;18.13;;;4.20;96.00;;;;;;5052872;28;20053;-77
2022/01/11 04:02:20;;;;;;;29.02;17.95;;;4.20;95.90;;;;;;5052942;28;20037;-78
2022/01/11 04:04:52;;;;;;;30.27;18.35;;;4.10;96.00;;;;;;5052309;28;20036;-78
2022/01/11 04:07:19;;;;;;;36.63;20.90;;;4.10;96.10;;;;;;5052510;28;20044;-78
2022/01/11 04:09:44;;;;;;;34.42;19.48;;;4.10;96.20;;;;;;5052520;28;20024;-78
2022/01/11 04:12:10;;;;;;;32.15;19.23;;;4.00;96.20;;;;;;5052699;28;20036;-78
2022/01/11 04:14:37;;;;;;;31.25;18.88;;;4.00;96.20;;;;;;5052863;28;20516;-78
2022/01/11 04:17:03;;;;;;;30.70;19.15;;;4.00;96.40;;;;;;5052453;28;20036;-79
2022/01/11 04:19:29;;;;;;;29.30;18.25;;;4.00;96.40;;;;;;5052398;28;20111;-79
2022/01/11 04:21:54;;;;;;;29.27;17.85;;;4.00;96.40;;;;;;5052598;28;20033;-79
2022/01/11 04:24:20;;;;;;;29.42;17.95;;;4.00;96.40;;;;;;5053325;28;20049;-79
2022/01/11 04:26:45;;;;;;;28.58;17.85;;;4.00;96.30;;;;;;5052459;28;20044;-78
2022/01/11 04:29:11;;;;;;;30.85;18.27;;;4.00;96.40;;;;;;5052812;28;20038;-79
2022/01/11 04:31:37;;;;;;;30.38;18.98;;;4.00;96.40;;;;;;5052628;28;20079;-78
2022/01/11 04:34:02;;;;;;;32.38;19.48;;;4.00;96.30;;;;;;5052986;28;20433;-78
2022/01/11 04:36:28;;;;;;;31.02;18.65;;;4.10;96.40;;;;;;5052513;28;20029;-79
2022/01/11 04:38:54;;;;;;;32.35;19.58;;;4.00;96.40;;;;;;5053122;28;20029;-79
2022/01/11 04:41:19;;;;;;;28.42;19.30;;;4.00;96.40;;;;;;5051384;28;20483;-79
2022/01/11 04:43:45;;;;;;;30.27;19.25;;;3.90;96.50;;;;;;5033429;28;20022;-79
2022/01/11 04:46:10;;;;;;;29.48;18.90;;;3.90;96.60;;;;;;5051649;28;20036;-81
2022/01/11 04:48:37;;;;;;;35.33;20.08;;;3.90;96.60;;;;;;5053069;28;20025;-80
2022/01/11 04:51:04;;;;;;;30.75;19.63;;;3.90;96.70;;;;;;5052333;28;20028;-80
2022/01/11 04:53:30;;;;;;;30.67;18.45;;;3.90;96.80;;;;;;5045267;28;20028;-80
2022/01/11 04:55:57;;;;;;;30.00;19.38;;;3.90;96.70;;;;;;5052487;28;20021;-81
2022/01/11 04:58:23;;;;;;;31.08;20.08;;;3.90;96.60;;;;;;5052634;28;20028;-80
2022/01/11 05:00:49;;;;;;;31.80;19.77;;;3.90;96.60;;;;;;5051293;28;20045;-79
2022/01/11 05:03:18;;;;;;;31.90;20.00;;;3.90;96.70;;;;;;5052225;28;20044;-79
2022/01/11 05:05:44;;;;;;;31.65;19.85;;;3.80;96.80;;;;;;5051790;28;20029;-79
2022/01/11 05:08:10;;;;;;;33.15;19.85;;;3.80;96.80;;;;;;5052121;28;20029;-79
2022/01/11 05:10:35;;;;;;;31.02;20.17;;;3.80;97.00;;;;;;5051762;28;20032;-79
2022/01/11 05:13:01;;;;;;;33.40;20.45;;;3.80;97.10;;;;;;5052324;28;20029;-80
2022/01/11 05:15:28;;;;;;;32.47;19.20;;;3.80;97.10;;;;;;5052109;28;20037;-80
2022/01/11 05:17:54;;;;;;;30.02;19.05;;;3.80;97.10;;;;;;5052627;28;20033;-79
2022/01/11 05:20:20;;;;;;;32.80;20.75;;;3.90;97.10;;;;;;5051568;28;20085;-79
2022/01/11 05:22:47;;;;;;;31.85;19.05;;;3.90;97.10;;;;;;5052132;28;20029;-77
2022/01/11 05:25:14;;;;;;;32.33;19.88;;;3.80;97.10;;;;;;5052440;28;20033;-77
2022/01/11 05:27:41;;;;;;;27.55;18.00;;;3.80;97.20;;;;;;5051278;28;20484;-79
2022/01/11 05:30:08;;;;;;;31.05;19.80;;;3.80;97.20;;;;;;5052047;28;20036;-79
2022/01/11 05:32:35;;;;;;;30.38;19.08;;;3.90;97.10;;;;;;5054096;28;20036;-78
2022/01/11 05:35:03;;;;;;;31.85;18.33;;;3.80;97.10;;;;;;5056122;28;20056;-78
2022/01/11 05:37:29;;;;;;;29.08;18.08;;;3.80;97.10;;;;;;5055383;28;20029;-78
2022/01/11 05:39:54;;;;;;;29.83;19.45;;;3.90;97.10;;;;;;5055677;28;20431;-79
2022/01/11 05:42:20;;;;;;;31.75;18.17;;;3.90;97.00;;;;;;5055802;28;20112;-79
2022/01/11 05:44:46;;;;;;;30.08;18.48;;;3.90;97.00;;;;;;5055648;28;20036;-78
2022/01/11 05:47:12;;;;;;;33.05;19.40;;;4.00;96.90;;;;;;5055352;28;20049;-79
2022/01/11 05:49:38;;;;;;;29.70;17.42;;;4.00;96.80;;;;;;5055520;28;20381;-78
2022/01/11 05:52:03;;;;;;;30.85;18.60;;;4.00;96.90;;;;;;5055042;28;20033;-78
2022/01/11 05:54:29;;;;;;;28.10;17.10;;;4.00;96.80;;;;;;5055368;28;20021;-78
2022/01/11 05:56:55;;;;;;;28.55;17.42;;;4.00;96.80;;;;;;5055047;28;20025;-78
2022/01/11 05:59:20;;;;;;;28.92;17.58;;;4.10;96.70;;;;;;5054459;28;20392;-78
2022/01/11 06:01:46;;;;;;;30.15;18.42;;;4.10;96.60;;;;;;5055027;28;20035;-79
2022/01/11 06:04:12;;;;;;;30.15;18.30;;;4.10;96.50;;;;;;5055171;28;20021;-79
2022/01/11 06:06:37;;;;;;;30.33;17.33;;;4.10;96.50;;;;;;5054570;28;20040;-80
2022/01/11 06:09:03;;;;;;;31.75;19.50;;;4.20;96.50;;;;;;5054891;28;20036;-78
2022/01/11 06:11:30;;;;;;;31.67;18.90;;;4.10;96.40;;;;;;5054709;28;20029;-82
2022/01/11 06:13:55;;;;;;;30.35;18.35;;;4.10;96.50;;;;;;5055023;28;20468;-81
2022/01/11 06:16:21;;;;;;;27.58;17.55;;;4.10;96.50;;;;;;5054627;28;20043;-81
2022/01/11 06:18:48;;;;;;;28.35;18.38;;;4.20;96.50;;;;;;5055245;28;20537;-79
2022/01/11 06:21:14;;;;;;;30.88;18.10;;;4.10;96.50;;;;;;5054615;28;20392;-80
2022/01/11 06:23:39;;;;;;;31.00;18.65;;;4.20;96.40;;;;;;5054747;28;20021;-80
2022/01/11 06:26:05;;;;;;;28.42;18.48;;;4.10;96.40;;;;;;5054320;28;20091;-79
2022/01/11 06:28:31;;;;;;;30.45;17.42;;;4.10;96.40;;;;;;5054805;28;20063;-80
2022/01/11 06:30:57;;;;;;;32.65;19.55;;;4.10;96.50;;;;;;5054594;28;20043;-79
2022/01/11 06:33:22;;;;;;;27.35;17.33;;;4.10;96.50;;;;;;5054672;28;20130;-79
2022/01/11 06:35:48;;;;;;;28.50;19.10;;;4.10;96.50;;;;;;5053914;28;20028;-80
2022/01/11 06:38:14;;;;;;;28.10;17.48;;;4.10;96.40;;;;;;5056030;28;20108;-80
2022/01/11 06:40:40;;;;;;;27.70;17.67;;;4.10;96.60;;;;;;5064444;28;20469;-80
2022/01/11 06:43:07;;;;;;;29.42;17.77;;;4.00;96.80;;;;;;5053993;28;20552;-80
2022/01/11 06:45:33;;;;;;;31.08;17.65;;;4.00;96.60;;;;;;5053968;28;20112;-82
2022/01/11 06:48:00;;;;;;;30.90;18.52;;;4.00;96.60;;;;;;5051419;28;20041;-82
2022/01/11 06:50:26;;;;;;;29.85;18.67;;;4.00;96.50;;;;;;5050200;28;20045;-80
2022/01/11 06:52:52;;;;;;;29.63;18.67;;;4.00;96.50;;;;;;5055121;28;20029;-84
2022/01/11 06:55:19;;;;;;;32.88;19.23;;;4.00;96.50;;;;;;5053873;28;20100;-80
2022/01/11 06:57:46;;;;;;;32.15;18.58;;;4.00;96.50;;;;;;5054653;28;20035;-79
2022/01/11 07:00:12;;;;;;;31.13;18.95;;;4.00;96.60;;;;;;5025379;28;20064;-78
2022/01/11 07:02:37;;;;;;;31.17;19.75;;;3.90;96.60;;;;;;5015500;28;20473;-78
2022/01/11 07:05:04;;;;;;;32.95;19.20;;;3.90;96.60;;;;;;5021826;28;20116;-80
2022/01/11 07:07:30;;;;;;;30.90;18.00;;;3.90;96.70;;;;;;5030407;28;20042;-81
2022/01/11 07:09:55;;;;;;;28.98;18.55;;;3.80;96.70;;;;;;5015600;28;20034;-83
2022/01/11 07:12:21;;;;;;;32.72;20.00;;;3.80;96.80;;;;;;5015983;28;20034;-82
2022/01/11 07:14:46;;;;;;;34.85;19.38;;;3.90;96.80;;;;;;5024301;28;20480;-84
2022/01/11 07:17:12;;;;;;;33.20;19.25;;;3.90;96.80;;;;;;5033286;28;20029;-83
2022/01/11 07:19:38;;;;;;;30.30;19.48;;;3.90;96.70;;;;;;5029318;28;20038;-82
2022/01/11 07:22:04;;;;;;;34.10;20.40;;;3.90;96.70;;;;;;5032512;28;20445;-83
2022/01/11 07:24:29;;;;;;;36.63;21.30;;;3.90;96.60;;;;;;5035391;28;20389;-79
2022/01/11 07:26:55;;;;;;;35.13;21.02;;;3.90;96.60;;;;;;5052813;28;20041;-79
2022/01/11 07:29:21;;;;;;;37.13;21.23;;;3.90;96.60;;;;;;5053265;28;20032;-79
2022/01/11 07:31:47;;;;;;;39.22;22.17;;;3.90;96.60;;;;;;5053331;28;20495;-79
2022/01/11 07:34:12;;;;;;;35.65;21.63;;;3.80;96.50;;;;;;5053526;28;20033;-79
2022/01/11 07:36:40;;;;;;;35.20;21.38;;;3.80;96.60;;;;;;5057637;28;20032;-78
2022/01/11 07:39:06;;;;;;;37.00;22.70;;;3.90;96.60;;;;;;5054232;28;20126;-78
2022/01/11 07:41:31;;;;;;;33.38;20.33;;;3.90;96.70;;;;;;5052948;28;20060;-76
2022/01/11 07:43:57;;;;;;;32.35;19.77;;;3.90;97.00;;;;;;5053286;28;20035;-79
2022/01/11 07:46:24;;;;;;;37.00;20.42;;;4.00;97.40;;;;;;5052340;28;20037;-77
2022/01/11 07:48:50;;;;;;;38.45;21.83;;;4.10;97.50;;;;;;5053559;28;20756;-78
2022/01/11 07:51:16;;;;;;;35.05;20.13;;;4.10;97.30;;;;;;5052413;28;20439;-79
2022/01/11 07:53:41;;;;;;;34.22;19.73;;;4.20;97.30;;;;;;5052947;28;20033;-81
2022/01/11 07:56:07;;;;;;;37.28;21.08;;;4.30;97.40;;;;;;5052188;28;20025;-84
2022/01/11 07:58:33;;;;;;;35.08;21.38;;;4.30;97.20;;;;;;5042585;28;20424;-82
2022/01/11 08:00:58;;;;;;;34.85;21.75;;;4.30;97.00;;;;;;5037507;28;20409;-81
2022/01/11 08:03:24;;;;;;;35.40;20.85;;;4.40;96.90;;;;;;5044144;28;20026;-85
2022/01/11 08:05:52;;;;;;;34.17;20.30;;;4.40;96.80;;;;;;5033109;28;20044;-86
2022/01/11 08:08:18;;;;;;;37.20;21.98;;;4.50;97.10;;;;;;5033430;28;20033;-86
2022/01/11 08:10:43;;;;;;;31.70;19.58;;;4.50;97.00;;;;;;5031989;28;20382;-84
2022/01/11 08:13:10;;;;;;;30.35;18.77;;;4.50;97.00;;;;;;5033328;28;20045;-85
2022/01/11 08:15:37;;;;;;;34.65;20.83;;;4.60;96.90;;;;;;5032053;28;20025;-84
2022/01/11 08:18:04;;;;;;;30.08;18.05;;;4.60;96.30;;;;;;5030615;28;20033;-86
2022/01/11 08:20:29;;;;;;;30.02;18.40;;;4.60;96.30;;;;;;5033190;28;20025;-88
2022/01/11 08:22:56;;;;;;;29.13;18.33;;;4.50;96.20;;;;;;5033433;28;20037;-80
2022/01/11 08:25:23;;;;;;;27.88;17.05;;;4.50;96.20;;;;;;5032879;28;20091;-78
2022/01/11 08:27:48;;;;;;;26.80;16.38;;;4.60;96.20;;;;;;5033060;28;20036;-77
2022/01/11 08:30:14;;;;;;;26.75;16.70;;;4.60;96.30;;;;;;5033211;28;20021;-78
2022/01/11 08:32:40;;;;;;;26.52;17.05;;;4.60;96.10;;;;;;5032830;28;20029;-79
2022/01/11 08:35:06;;;;;;;25.08;16.63;;;4.60;95.90;;;;;;5033746;28;20083;-77
2022/01/11 08:37:32;;;;;;;24.08;15.48;;;4.70;96.00;;;;;;5033783;28;20354;-76
2022/01/11 08:39:58;;;;;;;25.90;16.35;;;4.70;96.00;;;;;;5033139;28;20079;-80
2022/01/11 08:42:27;;;;;;;25.38;16.13;;;4.80;96.00;;;;;;5032990;28;20048;-79
2022/01/11 08:44:53;;;;;;;22.98;14.90;;;4.90;95.90;;;;;;5032920;28;20485;-80
2022/01/11 08:47:20;;;;;;;23.10;15.20;;;5.00;95.80;;;;;;5032968;28;20041;-83
2022/01/11 08:49:46;;;;;;;22.67;15.07;;;5.10;95.60;;;;;;5033156;28;20032;-83
2022/01/11 08:52:12;;;;;;;23.52;14.82;;;5.20;95.60;;;;;;5033734;28;20026;-81
2022/01/11 08:54:37;;;;;;;21.05;13.70;;;5.20;95.50;;;;;;5031181;28;20029;-80
2022/01/11 08:57:04;;;;;;;20.77;13.55;;;5.20;95.20;;;;;;5041488;28;20119;-77
2022/01/11 08:59:30;;;;;;;22.70;14.02;;;5.30;95.30;;;;;;5036213;28;20081;-76
2022/01/11 09:01:58;;;;;;;20.88;13.45;;;5.30;95.30;;;;;;5032301;28;20032;-77
2022/01/11 09:04:24;;;;;;;24.02;15.00;;;5.30;95.30;;;;;;5032966;28;20058;-78
2022/01/11 09:06:51;;;;;;;20.27;13.20;;;5.30;94.60;;;;;;5035730;28;20045;-77
2022/01/11 09:09:18;;;;;;;20.50;13.35;;;5.20;94.90;;;;;;5036565;28;20022;-78
2022/01/11 09:11:45;;;;;;;19.05;13.30;;;5.30;95.20;;;;;;5036733;28;20076;-81
2022/01/11 09:14:11;;;;;;;21.48;13.98;;;5.30;95.20;;;;;;5036774;28;20385;-80
2022/01/11 09:16:37;;;;;;;21.20;13.35;;;5.40;95.10;;;;;;5036227;28;20029;-80
2022/01/11 09:19:03;;;;;;;20.45;13.55;;;5.50;95.10;;;;;;5036391;28;20477;-80
2022/01/11 09:21:31;;;;;;;20.80;13.40;;;5.50;95.00;;;;;;5035820;28;20136;-80
2022/01/11 09:23:57;;;;;;;21.10;14.30;;;5.60;94.90;;;;;;5021876;28;21021;-80
2022/01/11 09:26:23;;;;;;;23.13;14.00;;;5.70;94.70;;;;;;5033669;28;20037;-80
2022/01/11 09:28:49;;;;;;;22.05;14.18;;;5.70;94.60;;;;;;5036217;28;20052;-82
2022/01/11 09:31:16;;;;;;;20.83;13.60;;;5.60;94.40;;;;;;5036426;28;20025;-80
2022/01/11 09:33:42;;;;;;;23.35;14.43;;;5.70;94.40;;;;;;5037908;28;20022;-83
2022/01/11 09:36:08;;;;;;;19.52;12.90;;;5.70;94.40;;;;;;5037003;28;20025;-83
2022/01/11 09:38:34;;;;;;;20.95;14.25;;;5.80;94.60;;;;;;5036180;28;20048;-80
2022/01/11 09:41:00;;;;;;;24.15;13.88;;;5.80;94.20;;;;;;5035393;28;20026;-81
2022/01/11 09:43:27;;;;;;;21.10;14.27;;;5.80;94.30;;;;;;5035870;28;20057;-81
2022/01/11 09:45:54;;;;;;;25.98;15.00;;;5.80;93.90;;;;;;5034982;28;20029;-77
2022/01/11 09:48:22;;;;;;;21.25;13.50;;;5.80;93.80;;;;;;5033211;28;20021;-80
2022/01/11 09:50:47;;;;;;;22.58;13.82;;;5.80;93.80;;;;;;5035302;28;20025;-79
2022/01/11 09:53:31;;;;;;;26.70;14.55;;;5.80;94.00;;;;;;5035226;28;20025;-77
2022/01/11 09:56:02;;;;;;;20.80;14.38;;;5.80;93.90;;;;;;5034965;28;20017;-77
2022/01/11 09:58:27;;;;;;;22.40;13.05;;;5.70;93.90;;;;;;5036024;28;20026;-77
2022/01/11 10:00:53;;;;;;;27.00;15.05;;;5.80;94.00;;;;;;5034735;28;20053;-77
2022/01/11 10:03:19;;;;;;;26.83;15.20;;;5.80;94.10;;;;;;5035528;28;20380;-77
2022/01/11 10:05:45;;;;;;;22.13;13.05;;;5.80;93.90;;;;;;5045670;28;20029;-77
2022/01/11 10:08:21;;;;;;;25.58;14.95;;;5.70;94.10;;;;;;5053010;28;20029;-77
2022/01/11 10:10:48;;;;;;;22.92;14.40;;;5.80;94.00;;;;;;5039737;28;20033;-77
2022/01/11 10:13:29;;;;;;;22.55;13.93;;;5.80;94.10;;;;;;5027512;28;20477;-78
2022/01/11 10:15:55;;;;;;;21.65;14.15;;;5.80;94.00;;;;;;5032521;28;20107;-77
2022/01/11 10:18:37;;;;;;;24.00;15.27;;;5.90;94.30;;;;;;5032305;28;20370;-77
2022/01/11 10:21:36;;;;;;;23.45;15.45;;;6.00;94.00;;;;;;5029983;28;20029;-78
2022/01/11 10:24:23;;;;;;;23.20;14.15;;;5.90;93.90;;;;;;5030819;28;20022;-77
2022/01/11 10:26:49;;;;;;;23.42;14.75;;;5.90;94.20;;;;;;5031715;28;20516;-77
2022/01/11 10:29:32;;;;;;;24.23;14.77;;;6.00;94.20;;;;;;5031434;28;20061;-77
2022/01/11 10:32:00;;;;;;;29.07;16.17;;;5.90;94.30;;;;;;5036231;28;20025;-77
2022/01/11 10:34:31;;;;;;;23.77;15.25;;;5.90;94.50;;;;;;5033978;28;20493;-78
2022/01/11 10:37:00;;;;;;;24.17;15.68;;;6.00;94.40;;;;;;5040331;28;20034;-78
2022/01/11 10:39:36;;;;;;;30.35;16.08;;;6.10;94.50;;;;;;5054737;28;20028;-77
2022/01/11 10:42:03;;;;;;;26.15;16.13;;;6.10;94.40;;;;;;5054117;28;20044;-77
2022/01/11 10:44:51;;;;;;;26.52;15.77;;;6.10;94.30;;;;;;5046241;28;20034;-78
2022/01/11 10:47:27;;;;;;;29.08;17.58;;;6.10;94.10;;;;;;5051490;28;20506;-77
2022/01/11 10:49:56;;;;;;;28.55;15.55;;;6.10;94.10;;;;;;5054190;28;21656;-78
2022/01/11 10:52:25;;;;;;;29.55;16.83;;;6.10;94.30;;;;;;5053949;28;20121;-77
2022/01/11 10:54:51;;;;;;;26.65;16.23;;;6.10;94.30;;;;;;5054013;28;20032;-77
2022/01/11 10:57:29;;;;;;;28.58;16.08;;;6.10;94.30;;;;;;5054017;28;20040;-78
2022/01/11 11:00:09;;;;;;;28.65;16.73;;;6.10;94.30;;;;;;5054117;28;20045;-77
2022/01/11 11:02:34;;;;;;;29.95;16.92;;;6.10;94.10;;;;;;5053055;28;20095;-78
2022/01/11 11:05:10;;;;;;;30.33;17.65;;;6.20;94.20;;;;;;5053901;28;20369;-76
2022/01/11 11:07:36;;;;;;;29.50;17.35;;;6.20;94.30;;;;;;5053149;28;20037;-77
2022/01/11 11:10:02;;;;;;;29.75;16.33;;;6.20;94.50;;;;;;5045929;28;20552;-77
2022/01/11 11:12:28;;;;;;;27.60;16.35;;;6.20;94.60;;;;;;5034243;28;20109;-80
2022/01/11 11:14:55;;;;;;;29.25;16.38;;;6.30;94.60;;;;;;5046771;28;20104;-79
2022/01/11 11:17:33;;;;;;;28.48;15.88;;;6.40;94.70;;;;;;5051271;28;20090;-78
2022/01/11 11:20:01;;;;;;;28.90;15.95;;;6.40;94.70;;;;;;5046449;28;20421;-85
2022/01/11 11:22:29;;;;;;;27.13;16.40;;;6.40;94.60;;;;;;5045144;28;20029;-81
2022/01/11 11:24:55;;;;;;;27.92;16.15;;;6.40;94.30;;;;;;5047285;28;20029;-78
2022/01/11 11:27:23;;;;;;;26.98;14.95;;;6.30;94.30;;;;;;5053363;28;20489;-81
2022/01/11 11:29:49;;;;;;;29.83;15.98;;;6.40;94.30;;;;;;5053012;28;20017;-81
2022/01/11 11:32:17;;;;;;;26.15;15.77;;;6.40;94.30;;;;;;5047052;28;20051;-78
2022/01/11 11:34:50;;;;;;;30.13;17.02;;;6.40;94.10;;;;;;5049212;28;20048;-77
2022/01/11 11:37:37;;;;;;;25.90;14.85;;;6.40;94.00;;;;;;5052337;28;20027;-76
2022/01/11 11:40:09;;;;;;;30.92;16.45;;;6.50;94.00;;;;;;5052499;28;20037;-78
2022/01/11 11:42:36;;;;;;;24.02;14.55;;;6.60;94.00;;;;;;5039783;28;20126;-77
2022/01/11 11:45:22;;;;;;;27.67;15.07;;;6.60;94.00;;;;;;5044606;28;20083;-73
2022/01/11 11:47:48;;;;;;;29.10;16.65;;;6.70;94.00;;;;;;5032975;28;20131;-73
2022/01/11 11:50:21;;;;;;;28.60;15.60;;;6.70;93.80;;;;;;5037420;28;20029;-81
2022/01/11 11:52:50;;;;;;;25.90;15.15;;;6.70;93.80;;;;;;5045118;28;20048;-79
2022/01/11 11:55:20;;;;;;;28.40;16.23;;;6.80;93.70;;;;;;5042277;28;20499;-74
2022/01/11 11:57:50;;;;;;;26.55;15.13;;;6.80;93.50;;;;;;5052127;28;20021;-73
2022/01/11 12:00:20;;;;;;;30.80;16.23;;;6.80;93.40;;;;;;5051702;28;20056;-75
2022/01/11 12:02:54;;;;;;;23.38;13.82;;;6.80;93.30;;;;;;5050874;28;20048;-79
2022/01/11 12:05:29;;;;;;;25.50;14.32;;;6.80;93.30;;;;;;5051660;28;20040;-78
2022/01/11 12:07:54;;;;;;;25.83;14.70;;;6.90;93.20;;;;;;5048369;28;20043;-77
2022/01/11 12:10:41;;;;;;;24.23;13.98;;;6.90;92.50;;;;;;5051707;28;20029;-77
2022/01/11 12:13:07;;;;;;;23.75;13.65;;;6.80;92.30;;;;;;5048631;28;20385;-76
2022/01/11 12:15:35;;;;;;;21.67;13.40;;;6.80;92.30;;;;;;5050122;28;20039;-79
2022/01/11 12:18:04;;;;;;;24.48;14.23;;;6.80;92.30;;;;;;5050421;28;20029;-77
2022/01/11 12:20:45;;;;;;;25.33;13.73;;;6.80;92.40;;;;;;5050395;28;20371;-76
2022/01/11 12:23:20;;;;;;;26.40;13.98;;;6.80;92.50;;;;;;5050463;28;20033;-76
2022/01/11 12:25:51;;;;;;;23.60;13.55;;;6.70;92.80;;;;;;5050575;28;20044;-78
2022/01/11 12:28:20;;;;;;;31.55;13.70;;;6.70;92.10;;;;;;5051423;28;20104;-78
2022/01/11 12:30:45;;;;;;;29.17;14.13;;;6.60;92.40;;;;;;5051729;28;20025;-78
2022/01/11 12:33:19;;;;;;;24.48;13.40;;;6.60;92.50;;;;;;5051468;28;20040;-78
2022/01/11 12:36:03;;;;;;;23.15;13.55;;;6.70;92.50;;;;;;5046151;28;20079;-78
2022/01/11 12:38:37;;;;;;;22.77;13.43;;;6.80;92.40;;;;;;5051396;28;20384;-77
2022/01/11 12:41:37;;;;;;;20.88;12.52;;;6.80;92.50;;;;;;5037420;28;20512;-77
2022/01/11 12:46:59;;;;;;;23.73;12.95;;;6.80;92.10;;;;;;5055361;28;20029;-80